• Join FlightAware (Why Join?)
  • Login
  • US Flag 
04:39PM EST


 

Airport Tracker/Info


-or-


 

Live Flight TrackerFlight Track Log ✈ UAL33 ✈ 09-Jun-2013 ✈ KORD - KIAH

Flight Track Log - Related Links

Times and Time Zones

All times are in EDT time to prevent confusion due to time zone crossing. See the UAL33 flight status page for this flight to view local times or setup timezone preferences in your user account.

Time Position Orientation Groundspeed Altitude Reporting Facility
EDT Latitude Longitude Course Direction KTS MPH feet Rate Location/Type
10:19PM 41.9800 -87.9120 340° North 21 24  Level FlightAware
10:20PM 41.9810 -87.9120 360° North 22 25 60 Level FlightAware
10:20PM 41.9800 -87.9130 217° Southwest 24 28 60 Level FlightAware
10:21PM 41.9780 -87.9140 200° South 29 33 60 Level FlightAware
10:21PM 41.9770 -87.9150 217° Southwest 24 28 60 Level FlightAware
10:22PM 41.9780 -87.9150 360° North 24 28 60 Level FlightAware
10:22PM 41.9790 -87.9160 323° Northwest 28 32 60 Level FlightAware
10:22PM 41.9800 -87.9180 304° West 27 31 60 Level FlightAware
10:23PM 41.9810 -87.9180 360° North 26 30 60 Level FlightAware
10:24PM 41.9820 -87.9190 323° Northwest 18 21 60 Level FlightAware
10:24PM 41.9820 -87.9200 270° West 26 30 60 Level FlightAware
10:25PM 41.9820 -87.9220 270° West 30 35 60 Level FlightAware
10:25PM 41.9840 -87.9240 323° Northwest 17 20 60 Level FlightAware
10:26PM 41.9870 -87.9200 45° Northeast 15 17 60 Level FlightAware
10:27PM 41.9870 -87.9180 90° East 15 17 120 Level FlightAware
10:27PM 41.9870 -87.9150 90° East 11 13 120 Level FlightAware
10:28PM 41.9880 -87.9150 360° North 27 31 120 Level FlightAware
10:29PM 41.9900 -87.9140 20° North 16 18 120 Level FlightAware
10:29PM 41.9910 -87.9140 360° North 17 20 120 Level FlightAware
10:29PM 41.9930 -87.9110 48° Northeast 17 20 120 Level FlightAware
10:30PM 41.9940 -87.9100 37° Northeast 32 37 120 Level FlightAware
10:30PM 41.9950 -87.9090 37° Northeast 30 35 180 Level FlightAware
10:30PM 41.9960 -87.9110 304° West 17 20 180 Level FlightAware
10:31PM 41.9980 -87.9120 340° North 18 21 180 Level FlightAware
10:31PM 41.9990 -87.9140 304° West 34 39 180 Level FlightAware
10:32PM 42.0000 -87.9150 323° Northwest 24 28 180 Level FlightAware
10:32PM 42.0010 -87.9160 323° Northwest 21 24 240 Level FlightAware
10:35PM 41.7526 -88.0992 200° South  Level Estimated
10:36PM 41.6511 -88.1735 201° Southwest  Level Estimated
10:36PM 42.0020 -87.9150 201° Southwest 21 24  Level FlightAware
10:37PM 42.0000 -87.9120 132° Southeast 78 90 840 Level FlightAware
10:38PM 41.9790 -87.8900 142° Southeast 161 185 1,500 2,340 Climbing FlightAware
10:38PM 41.9680 -87.8830 155° Southeast 166 191 2,200 2,100 Climbing FlightAware
10:39PM 41.9340 -87.8820 179° South 217 250 3,500 2,100 Climbing FlightAware
10:39PM 41.9180 -87.8810 177° South 238 274 4,100 2,580 Climbing FlightAware
10:39PM 41.8940 -87.8800 178° South 250 288 5,300 3,540 Climbing FlightAware
10:40PM 41.8380 -87.8940 191° South 273 314 8,200 3,840 Climbing FlightAware
10:40PM 41.8080 -87.9140 206° Southwest 281 323 9,600 3,660 Climbing FlightAware
10:41PM 41.7540 -87.9500 206° Southwest 281 323 12,600 3,180 Climbing FlightAware
10:42PM 41.6990 -87.9860 206° Southwest 323 372 14,400 2,700 Climbing FlightAware
10:43PM 41.6430 -88.0210 205° Southwest 344 396 16,400 3,180 Climbing FlightAware
10:43PM 41.5790 -88.0530 201° Southwest 349 402 18,800 3,300 Climbing FlightAware
10:44PM 41.5130 -88.0860 201° Southwest 354 407 21,200 3,060 Climbing FlightAware
10:45PM 41.4500 -88.1170 200° South 362 417 23,100 2,880 Climbing FlightAware
10:45PM 41.3800 -88.1520 201° Southwest 364 419 25,300 2,820 Climbing FlightAware
10:46PM 41.3140 -88.1840 200° South 367 422 27,200 2,460 Climbing FlightAware
10:47PM 41.2500 -88.2160 201° Southwest 375 432 28,700 2,220 Climbing FlightAware
10:47PM 41.1810 -88.2500 200° South 380 437 30,300 2,040 Climbing FlightAware
10:48PM 41.1090 -88.2850 200° South 386 444 31,600 1,920 Climbing FlightAware
10:49PM 41.0410 -88.3180 200° South 389 448 33,000 1,800 Climbing FlightAware
10:50PM 40.9670 -88.3650 206° Southwest 396 456 34,200 1,500 Climbing FlightAware
10:50PM 40.9120 -88.4230 219° Southwest 402 463 35,100 1,140 Climbing FlightAware
10:51PM 40.8430 -88.4940 218° Southwest 416 479 35,800 1,080 Climbing FlightAware
10:52PM 40.7830 -88.5570 218° Southwest 418 481 36,700 1,140 Climbing FlightAware
10:52PM 40.7160 -88.6270 218° Southwest 425 489 37,400 1,080 Climbing FlightAware
10:53PM 40.6570 -88.6880 218° Southwest 427 491 38,200 960 Climbing FlightAware
10:54PM 40.6040 -88.7430 218° Southwest 431 496 38,700 660 Climbing FlightAware
10:54PM 40.5240 -88.8250 218° Southwest 441 507 39,200 660 Climbing FlightAware
10:55PM 40.4590 -88.8910 218° Southwest 445 512 39,700 540 Climbing FlightAware
10:56PM 40.3820 -88.9700 218° Southwest 448 516 40,000 180 Climbing FlightAware
10:57PM 40.3170 -89.0370 218° Southwest 448 516 40,000  Level FlightAware
10:57PM 40.2510 -89.1030 217° Southwest 452 520 40,000  Level FlightAware
10:58PM 40.1800 -89.1760 218° Southwest 458 527 40,000  Level FlightAware
10:59PM 40.1070 -89.2500 218° Southwest 459 528 40,000  Level FlightAware
10:59PM 40.0350 -89.3230 218° Southwest 459 528 40,000  Level FlightAware
11:00PM 39.9650 -89.3940 218° Southwest 461 531 40,000  Level FlightAware
11:01PM 39.8950 -89.4640 218° Southwest 462 532 40,000  Level FlightAware
11:02PM 39.8190 -89.5390 217° Southwest 464 534 40,000  Level FlightAware
11:02PM 39.7470 -89.6120 218° Southwest 467 537 40,000  Level FlightAware
11:03PM 39.6820 -89.6770 218° Southwest 468 539 40,000  Level FlightAware
11:04PM 39.6030 -89.7550 217° Southwest 470 541 40,000  Level FlightAware
11:04PM 39.5400 -89.8170 217° Southwest 471 542 40,000  Level FlightAware
11:05PM 39.4600 -89.8970 218° Southwest 470 541 40,000  Level FlightAware
11:06PM 39.3930 -89.9630 217° Southwest 467 537 40,000  Level FlightAware
11:06PM 39.3240 -90.0310 217° Southwest 466 536 40,000  Level FlightAware
11:07PM 39.2470 -90.1060 217° Southwest 471 542 40,000  Level FlightAware
11:08PM 39.1770 -90.1750 217° Southwest 476 548 40,000  Level FlightAware
11:08PM 39.0960 -90.2540 217° Southwest 478 550 40,000  Level FlightAware
11:09PM 39.0350 -90.3140 217° Southwest 478 550 40,000  Level FlightAware
11:10PM 38.9600 -90.3860 217° Southwest 476 548 40,000  Level FlightAware
11:11PM 38.8840 -90.4620 218° Southwest 474 545 40,000  Level FlightAware
11:11PM 38.8310 -90.5410 229° Southwest 466 536 40,000  Level FlightAware
11:12PM 38.7800 -90.6370 236° Southwest 466 536 40,000  Level FlightAware
11:13PM 38.7070 -90.7860 238° Southwest 472 543 40,000  Level FlightAware
11:14PM 38.6680 -90.8610 236° Southwest 471 542 40,000  Level FlightAware
11:14PM 38.6080 -90.9800 237° Southwest 466 536 40,000  Level FlightAware
11:15PM 38.5580 -91.0760 236° Southwest 466 536 40,000  Level FlightAware
11:16PM 38.4910 -91.2050 236° Southwest 462 532 40,000  Level FlightAware
11:17PM 38.4430 -91.2990 237° Southwest 460 529 40,000  Level FlightAware
11:17PM 38.4050 -91.3720 236° Southwest 460 529 40,000  Level FlightAware
11:18PM 38.3410 -91.4950 236° Southwest 460 529 40,000  Level FlightAware
11:19PM 38.2960 -91.5820 237° Southwest 458 527 40,000  Level FlightAware
11:19PM 38.2500 -91.6700 236° Southwest 457 526 40,000  Level FlightAware
11:20PM 38.2130 -91.7400 236° Southwest 457 526 40,000  Level FlightAware
11:21PM 38.1630 -91.8330 236° Southwest 457 526 40,000  Level FlightAware
11:22PM 38.0830 -91.9870 237° Southwest 457 526 40,000  Level FlightAware
11:23PM 38.0310 -92.0860 236° Southwest 458 527 40,000  Level FlightAware
11:23PM 37.9790 -92.1840 236° Southwest 461 531 40,000  Level FlightAware
11:24PM 37.9310 -92.2730 236° Southwest 464 534 40,000  Level FlightAware
11:25PM 37.8780 -92.3730 236° Southwest 464 534 40,000  Level FlightAware
11:25PM 37.8300 -92.4630 236° Southwest 463 533 40,000  Level FlightAware
11:26PM 37.7770 -92.5600 235° Southwest 464 534 40,000  Level FlightAware
11:27PM 37.7270 -92.6550 236° Southwest 464 534 40,000  Level FlightAware
11:27PM 37.6730 -92.7540 235° Southwest 464 534 40,000  Level FlightAware
11:28PM 37.6250 -92.8430 236° Southwest 465 535 40,000  Level FlightAware
11:29PM 37.5710 -92.9410 235° Southwest 466 536 40,000  Level FlightAware
11:29PM 37.5220 -93.0310 236° Southwest 467 537 40,000  Level FlightAware
11:30PM 37.4680 -93.1300 236° Southwest 469 540 40,000  Level FlightAware
11:31PM 37.4190 -93.2200 236° Southwest 472 543 40,000  Level FlightAware
11:32PM 37.3680 -93.3080 234° Southwest 472 543 40,000  Level FlightAware
11:32PM 37.2840 -93.3780 214° Southwest 478 550 40,000  Level FlightAware
11:33PM 37.2130 -93.4440 217° Southwest 476 548 40,000  Level FlightAware
11:34PM 37.1380 -93.5120 216° Southwest 477 549 40,000  Level FlightAware
11:34PM 37.0670 -93.5720 214° Southwest 480 552 40,000  Level FlightAware
11:35PM 36.9830 -93.6440 214° Southwest 482 555 40,000  Level FlightAware
11:36PM 36.9080 -93.7060 213° Southwest 484 557 40,000  Level FlightAware
11:36PM 36.8260 -93.7750 214° Southwest 486 559 40,000  Level FlightAware
11:37PM 36.7520 -93.8370 214° Southwest 487 560 40,000  Level FlightAware
11:38PM 36.6700 -93.9060 214° Southwest 486 559 40,000  Level FlightAware
11:39PM 36.5950 -93.9690 214° Southwest 487 560 40,000  Level FlightAware
11:39PM 36.5130 -94.0370 214° Southwest 486 559 40,000  Level FlightAware
11:40PM 36.4310 -94.1060 214° Southwest 489 563 40,000  Level FlightAware
11:41PM 36.3520 -94.1720 214° Southwest 487 560 40,000  Level FlightAware
11:41PM 36.2770 -94.2340 214° Southwest 481 554 40,000  Level FlightAware
11:42PM 36.1960 -94.3010 214° Southwest 475 547 40,000  Level FlightAware
11:43PM 36.1230 -94.3610 214° Southwest 474 545 40,000  Level FlightAware
11:43PM 36.0460 -94.4250 214° Southwest 473 544 40,000  Level FlightAware
11:44PM 35.9750 -94.4830 213° Southwest 474 545 40,000  Level FlightAware
11:45PM 35.8930 -94.5510 214° Southwest 475 547 40,000  Level FlightAware
11:46PM 35.8190 -94.6110 213° Southwest 473 544 40,000  Level FlightAware
11:46PM 35.7390 -94.6760 213° Southwest 475 547 40,000  Level FlightAware
11:47PM 35.6680 -94.7340 214° Southwest 475 547 40,000  Level FlightAware
11:48PM 35.5970 -94.7920 214° Southwest 479 551 40,000  Level FlightAware
11:48PM 35.5240 -94.8510 213° Southwest 482 555 40,000  Level FlightAware
11:49PM 35.4470 -94.9130 213° Southwest 483 556 40,000  Level FlightAware
11:50PM 35.3660 -94.9790 214° Southwest 486 559 40,000  Level FlightAware
11:50PM 35.2830 -95.0450 213° Southwest 490 564 40,000  Level FlightAware
11:51PM 35.2060 -95.1070 213° Southwest 492 566 40,000  Level FlightAware
11:52PM 35.1260 -95.1710 213° Southwest 492 566 40,000  Level FlightAware
11:53PM 35.0390 -95.2410 213° Southwest 489 563 40,000  Level FlightAware
11:53PM 34.9560 -95.3070 213° Southwest 492 566 40,000  Level FlightAware
11:54PM 34.9000 -95.3510 213° Southwest 493 567 40,000  Level FlightAware
11:55PM 34.7930 -95.4370 213° Southwest 494 568 40,000  Level FlightAware
11:56PM 34.6890 -95.5190 213° Southwest 498 573 40,000  Level FlightAware
11:56PM 34.6300 -95.5650 213° Southwest 498 573 40,000  Level FlightAware
11:57PM 34.5690 -95.6130 213° Southwest 498 573 40,000  Level FlightAware
11:58PM 34.4890 -95.6770 213° Southwest 498 573 40,000  Level FlightAware
11:58PM 34.4290 -95.7230 212° Southwest 498 573 40,000  Level FlightAware
11:59PM 34.3314 -95.7999 213° Southwest 498 573 40,000  Level FlightAware ADS-B
12:00AM 34.2360 -95.8750 213° Southwest 492 566 40,000  Level FlightAware
12:01AM 34.0870 -95.9910 213° Southwest 498 573 40,000  Level FlightAware
12:01AM 34.0010 -96.0570 212° Southwest 501 577 40,000  Level FlightAware
12:02AM 33.9210 -96.1190 213° Southwest 499 574 40,000  Level FlightAware
12:03AM 33.8430 -96.1790 213° Southwest 499 574 40,000  Level FlightAware
12:04AM 33.7690 -96.2360 213° Southwest 498 573 40,000  Level FlightAware
12:04AM 33.6740 -96.3090 213° Southwest 500 575 40,000  Level FlightAware
12:05AM 33.5960 -96.3690 213° Southwest 500 575 40,000  Level FlightAware
12:06AM 33.5140 -96.4320 213° Southwest 502 578 40,000  Level FlightAware
12:06AM 33.4380 -96.4890 212° Southwest 503 579 40,000  Level FlightAware
12:07AM 33.3500 -96.5560 212° Southwest 501 577 40,000  Level FlightAware
12:08AM 33.2531 -96.6301 213° Southwest 500 575 40,000  Level FlightAware ADS-B
12:08AM 33.1938 -96.6751 212° Southwest 500 575 40,000  Level FlightAware ADS-B
12:09AM 33.1125 -96.7364 212° Southwest 501 577 40,000  Level FlightAware ADS-B
12:10AM 33.0230 -96.7940 208° Southwest 504 580 40,000  Level FlightAware
12:11AM 32.9210 -96.7920 179° South 508 585 40,000  Level FlightAware
12:11AM 32.8293 -96.7741 171° South 505 581 40,000  Level FlightAware ADS-B
12:12AM 32.7592 -96.7600 170° South 507 583 40,000  Level FlightAware ADS-B
12:12AM 32.6746 -96.7427 170° South 509 586 40,000  Level FlightAware ADS-B
12:13AM 32.5824 -96.7242 170° South 507 583 40,000  Level FlightAware ADS-B
12:14AM 32.4730 -96.7023 170° South 504 580 40,000 -420 Level FlightAware ADS-B
12:16AM 32.1870 -96.6458 171° South 476 548 38,800 -840 Descending FlightAware ADS-B
12:17AM 32.0772 -96.6241 171° South 442 509 37,600 -1,620 Descending FlightAware ADS-B
12:17AM 32.0483 -96.6217 176° South 442 509 37,000 -2,880 Descending FlightAware ADS-B
12:17AM 32.0252 -96.6235 184° South 446 513 36,400 -1,440 Descending FlightAware ADS-B
12:18AM 31.8795 -96.6841 202° Southwest 447 514 35,000 -660 Descending FlightAware ADS-B
12:19AM 31.7534 -96.7447 202° Southwest 451 519 35,000  Level FlightAware ADS-B
12:20AM 31.6936 -96.7736 202° Southwest 454 522 35,000  Level FlightAware ADS-B
12:21AM 31.6349 -96.8021 202° Southwest 454 522 35,000  Level FlightAware ADS-B
12:21AM 31.5759 -96.8309 203° Southwest 454 522 35,000  Level FlightAware ADS-B
12:21AM 31.5251 -96.8557 203° Southwest 453 521 35,000  Level FlightAware ADS-B
12:22AM 31.5132 -96.8606 199° South 453 521 35,000  Level FlightAware ADS-B
12:22AM 31.4926 -96.8652 188° South 455 524 35,000  Level FlightAware ADS-B
12:22AM 31.4720 -96.8654 177° South 456 525 35,000  Level FlightAware ADS-B
12:22AM 31.4482 -96.8607 168° South 458 527 35,000  Level FlightAware ADS-B
12:22AM 31.4345 -96.8554 162° South 459 528 35,000  Level FlightAware ADS-B
12:22AM 31.4268 -96.8513 156° South 459 528 35,000  Level FlightAware ADS-B
12:22AM 31.4155 -96.8442 152° Southeast 460 529 35,000  Level FlightAware ADS-B
12:22AM 31.4084 -96.8387 147° Southeast 461 531 35,000  Level FlightAware ADS-B
12:23AM 31.3596 -96.7893 139° Southeast 463 533 35,000  Level FlightAware ADS-B
12:23AM 31.3113 -96.7398 139° Southeast 463 533 35,000 -1,620 Level FlightAware ADS-B
12:24AM 31.2626 -96.6900 139° Southeast 452 520 33,400 -4,680 Descending FlightAware ADS-B
12:25AM 31.1150 -96.5390 139° Southeast 470 541 25,500 -3,240 Descending FlightAware ADS-B
12:28AM 30.9239 -96.3451 139° Southeast 429 494 21,800 -1,920 Descending FlightAware ADS-B
12:29AM 30.8349 -96.2550 139° Southeast 415 478 19,800 -1,920 Descending FlightAware ADS-B
12:29AM 30.7908 -96.2106 139° Southeast 413 475 18,900 -1,920 Descending FlightAware ADS-B
12:30AM 30.7042 -96.1236 139° Southeast 402 463 16,900 -2,040 Descending FlightAware ADS-B
12:31AM 30.6625 -96.0816 139° Southeast 395 455 15,900 -1,980 Descending FlightAware ADS-B
12:31AM 30.5870 -96.0039 138° Southeast 384 442 14,100 -1,920 Descending FlightAware ADS-B
12:32AM 30.5469 -95.9609 137° Southeast 377 434 13,200 -1,320 Descending FlightAware ADS-B
12:33AM 30.4709 -95.8808 138° Southeast 349 402 12,100 -840 Descending FlightAware ADS-B
12:33AM 30.4358 -95.8440 138° Southeast 324 373 12,000 -240 Descending FlightAware ADS-B
12:34AM 30.4030 -95.8098 138° Southeast 302 348 11,900 -840 Descending FlightAware ADS-B
12:35AM 30.3411 -95.7450 138° Southeast 294 338 10,800 -1,200 Descending FlightAware ADS-B
12:36AM 30.2796 -95.6811 138° Southeast 292 336 9,500 -1,260 Descending FlightAware ADS-B
12:37AM 30.2427 -95.6427 138° Southeast 291 335 8,800 -1,140 Descending FlightAware ADS-B
12:38AM 30.1892 -95.5868 138° Southeast 286 329 7,800 -1,140 Descending FlightAware ADS-B
12:38AM 30.1742 -95.5710 138° Southeast 285 328 7,500 -1,080 Descending FlightAware ADS-B
12:38AM 30.1441 -95.5397 138° Southeast 280 322 7,000 -900 Descending FlightAware ADS-B
12:39AM 30.1294 -95.5245 138° Southeast 280 322 6,800 -780 Descending FlightAware ADS-B
12:39AM 30.1212 -95.5158 137° Southeast 279 321 6,700 -780 Descending FlightAware ADS-B
12:39AM 30.1144 -95.5069 128° Southeast 277 319 6,600 -1,080 Descending FlightAware ADS-B
12:39AM 30.1061 -95.4792 100° East 270 311 6,200 -1,020 Descending FlightAware ADS-B
12:39AM 30.1059 -95.4743 93° East 269 310 6,200 -480 Level FlightAware ADS-B
12:40AM 30.1060 -95.4415 90° East 268 308 6,000 -360 Descending FlightAware ADS-B
12:40AM 30.1060 -95.4211 90° East 243 280 6,000  Level FlightAware ADS-B
12:40AM 30.1060 -95.3815 90° East 231 266 6,000  Level FlightAware ADS-B
12:41AM 30.1060 -95.3629 90° East 232 267 6,000 -540 Level FlightAware ADS-B
12:42AM 30.1061 -95.2678 90° East 229 264 5,200 -720 Descending FlightAware ADS-B
12:42AM 30.1061 -95.2488 90° East 229 264 4,900 -1,020 Descending FlightAware ADS-B
12:43AM 30.1060 -95.1996 90° East 226 260 4,300 -1,080 Descending FlightAware ADS-B
12:43AM 30.1061 -95.1810 90° East 226 260 3,900 -1,020 Descending FlightAware ADS-B
12:43AM 30.1062 -95.1629 90° East 219 252 3,800 -480 Descending FlightAware ADS-B
12:44AM 30.1063 -95.1515 89° East 214 246 3,700 -480 Descending FlightAware ADS-B
12:44AM 30.1062 -95.1483 92° East 212 244 3,700 -600 Level FlightAware ADS-B
12:44AM 30.1049 -95.1404 104° East 207 238 3,600 -900 Descending FlightAware ADS-B
12:44AM 30.1021 -95.1337 120° Southeast 203 234 3,500 -720 Descending FlightAware ADS-B
12:44AM 30.0948 -95.1258 146° Southeast 195 224 3,400 -540 Descending FlightAware ADS-B
12:44AM 30.0838 -95.1222 171° South 189 217 3,300 -600 Descending FlightAware ADS-B
12:44AM 30.0767 -95.1216 176° South 187 215 3,200 -840 Descending FlightAware ADS-B
12:45AM 30.0411 -95.1248 198° South 179 206 2,600 -840 Descending FlightAware ADS-B
12:45AM 30.0330 -95.1302 210° Southwest 178 205 2,500 -840 Descending FlightAware ADS-B
12:45AM 30.0260 -95.1379 226° Southwest 178 205 2,300 -900 Descending FlightAware ADS-B
12:46AM 30.0111 -95.1592 231° Southwest 179 206 1,900 -840 Descending FlightAware ADS-B
12:46AM 29.9960 -95.1818 232° Southwest 178 205 1,500 -600 Descending FlightAware ADS-B
12:47AM 29.9899 -95.1910 233° Southwest 171 197 1,500  Level FlightAware ADS-B
12:47AM 29.9829 -95.2016 233° Southwest 155 178 1,500  Level FlightAware ADS-B
12:47AM 29.9794 -95.2077 236° Southwest 153 176 1,500  Level FlightAware ADS-B
12:47AM 29.9781 -95.2127 253° West 156 180 1,500  Level FlightAware ADS-B
12:47AM 29.9778 -95.2160 264° West 159 183 1,500 -600 Level FlightAware ADS-B
12:47AM 29.9776 -95.2208 267° West 158 182 1,400 -900 Descending FlightAware ADS-B
12:48AM 29.9776 -95.2326 270° West 150 173 1,200 -840 Descending FlightAware ADS-B
12:48AM 29.9776 -95.2453 270° West 146 168 1,000 -780 Descending FlightAware ADS-B
12:48AM 29.9777 -95.2571 271° West 144 166 800 -840 Descending FlightAware ADS-B
12:48AM 29.9776 -95.2625 269° West 144 166 700 -480 Descending FlightAware ADS-B
12:48AM 29.9776 -95.2675 270° West 144 166 700 -780 Level FlightAware ADS-B
12:48AM 29.9776 -95.2744 270° West 144 166 500 -960 Descending FlightAware ADS-B
12:49AM 29.9775 -95.2821 269° West 143 165 400 -720 Descending FlightAware ADS-B
12:49AM 29.9776 -95.2932 271° West 143 165 200 -840 Descending FlightAware ADS-B